sensor_id;sensor_type;location;lat;lon;timestamp;temperature;humidity
19385;DHT22;9828;54.122;17.974;2024-01-07T00:02:05;-1.00;1.00
19385;DHT22;9828;54.122;17.974;2024-01-07T00:07:26;-1.00;1.00
19385;DHT22;9828;54.122;17.974;2024-01-07T00:12:47;-1.20;1.00
19385;DHT22;9828;54.122;17.974;2024-01-07T00:18:10;-1.10;1.00
19385;DHT22;9828;54.122;17.974;2024-01-07T00:23:32;-1.10;1.00
19385;DHT22;9828;54.122;17.974;2024-01-07T00:28:53;-1.10;1.00
19385;DHT22;9828;54.122;17.974;2024-01-07T00:34:14;-1.10;1.00
19385;DHT22;9828;54.122;17.974;2024-01-07T00:39:35;-1.10;1.00
19385;DHT22;9828;54.122;17.974;2024-01-07T00:44:57;-1.10;1.00
19385;DHT22;9828;54.122;17.974;2024-01-07T00:50:18;-1.00;1.00
19385;DHT22;9828;54.122;17.974;2024-01-07T00:55:40;-1.10;1.00
19385;DHT22;9828;54.122;17.974;2024-01-07T01:01:01;-1.20;1.00
19385;DHT22;9828;54.122;17.974;2024-01-07T01:06:23;-1.10;1.00
19385;DHT22;9828;54.122;17.974;2024-01-07T01:11:44;-1.10;1.00
19385;DHT22;9828;54.122;17.974;2024-01-07T01:17:06;-1.10;1.00
19385;DHT22;9828;54.122;17.974;2024-01-07T01:22:27;-1.20;1.00
19385;DHT22;9828;54.122;17.974;2024-01-07T01:27:48;-1.20;1.00
19385;DHT22;9828;54.122;17.974;2024-01-07T01:33:10;-1.30;1.00
19385;DHT22;9828;54.122;17.974;2024-01-07T01:38:31;-1.30;1.00
19385;DHT22;9828;54.122;17.974;2024-01-07T01:43:57;-1.30;1.00
19385;DHT22;9828;54.122;17.974;2024-01-07T01:49:19;-1.40;1.00
19385;DHT22;9828;54.122;17.974;2024-01-07T01:54:40;-1.50;1.00
19385;DHT22;9828;54.122;17.974;2024-01-07T02:00:03;-1.50;1.00
19385;DHT22;9828;54.122;17.974;2024-01-07T02:05:26;-1.50;1.00
19385;DHT22;9828;54.122;17.974;2024-01-07T02:10:47;-1.40;1.00
19385;DHT22;9828;54.122;17.974;2024-01-07T02:16:09;-1.30;1.00
19385;DHT22;9828;54.122;17.974;2024-01-07T02:21:30;-1.30;1.00
19385;DHT22;9828;54.122;17.974;2024-01-07T02:26:52;-1.30;1.00
19385;DHT22;9828;54.122;17.974;2024-01-07T02:32:13;-1.30;1.00
19385;DHT22;9828;54.122;17.974;2024-01-07T02:37:35;-1.30;1.00
19385;DHT22;9828;54.122;17.974;2024-01-07T02:42:56;-1.30;1.00
19385;DHT22;9828;54.122;17.974;2024-01-07T02:48:17;-1.40;1.00
19385;DHT22;9828;54.122;17.974;2024-01-07T02:53:39;-1.50;1.00
19385;DHT22;9828;54.122;17.974;2024-01-07T02:59:01;-1.50;1.00
19385;DHT22;9828;54.122;17.974;2024-01-07T03:04:22;-1.60;1.00
19385;DHT22;9828;54.122;17.974;2024-01-07T03:09:43;-1.50;1.00
19385;DHT22;9828;54.122;17.974;2024-01-07T03:15:06;-1.60;1.00
19385;DHT22;9828;54.122;17.974;2024-01-07T03:20:29;-1.80;1.00
19385;DHT22;9828;54.122;17.974;2024-01-07T03:25:50;-1.80;1.00
19385;DHT22;9828;54.122;17.974;2024-01-07T03:31:13;-1.90;1.00
19385;DHT22;9828;54.122;17.974;2024-01-07T03:36:35;-2.00;1.00
19385;DHT22;9828;54.122;17.974;2024-01-07T03:41:56;-2.00;1.00
19385;DHT22;9828;54.122;17.974;2024-01-07T03:47:17;-2.10;1.00
19385;DHT22;9828;54.122;17.974;2024-01-07T03:52:39;-2.10;1.00
19385;DHT22;9828;54.122;17.974;2024-01-07T03:58:00;-2.00;1.00
19385;DHT22;9828;54.122;17.974;2024-01-07T04:03:21;-2.00;1.00
19385;DHT22;9828;54.122;17.974;2024-01-07T04:08:43;-2.00;1.00
19385;DHT22;9828;54.122;17.974;2024-01-07T04:14:04;-2.00;1.00
19385;DHT22;9828;54.122;17.974;2024-01-07T04:19:25;-2.20;1.00
19385;DHT22;9828;54.122;17.974;2024-01-07T04:24:46;-2.10;1.00
19385;DHT22;9828;54.122;17.974;2024-01-07T04:30:08;-2.10;1.00
19385;DHT22;9828;54.122;17.974;2024-01-07T04:35:30;-2.30;1.00
19385;DHT22;9828;54.122;17.974;2024-01-07T04:40:51;-2.30;1.00
19385;DHT22;9828;54.122;17.974;2024-01-07T04:46:13;-2.20;1.00
19385;DHT22;9828;54.122;17.974;2024-01-07T04:51:35;-2.30;1.00
19385;DHT22;9828;54.122;17.974;2024-01-07T04:56:59;-2.40;1.00
19385;DHT22;9828;54.122;17.974;2024-01-07T05:02:20;-2.30;1.00
19385;DHT22;9828;54.122;17.974;2024-01-07T05:07:41;-2.40;1.00
19385;DHT22;9828;54.122;17.974;2024-01-07T05:13:03;-2.40;1.00
19385;DHT22;9828;54.122;17.974;2024-01-07T05:18:27;-2.50;1.00
19385;DHT22;9828;54.122;17.974;2024-01-07T05:23:48;-2.50;1.00
19385;DHT22;9828;54.122;17.974;2024-01-07T05:29:10;-2.60;1.00
19385;DHT22;9828;54.122;17.974;2024-01-07T05:34:32;-2.60;1.00
19385;DHT22;9828;54.122;17.974;2024-01-07T05:39:53;-2.60;1.00
19385;DHT22;9828;54.122;17.974;2024-01-07T05:45:14;-2.50;1.00
19385;DHT22;9828;54.122;17.974;2024-01-07T05:50:36;-2.50;1.00
19385;DHT22;9828;54.122;17.974;2024-01-07T05:55:57;-2.50;1.00
19385;DHT22;9828;54.122;17.974;2024-01-07T06:01:19;-2.60;1.00
19385;DHT22;9828;54.122;17.974;2024-01-07T06:06:41;-2.50;1.00
19385;DHT22;9828;54.122;17.974;2024-01-07T06:12:03;-2.40;1.00
19385;DHT22;9828;54.122;17.974;2024-01-07T06:17:24;-2.40;1.00
19385;DHT22;9828;54.122;17.974;2024-01-07T06:22:45;-2.40;1.00
19385;DHT22;9828;54.122;17.974;2024-01-07T06:28:08;-2.60;1.00
19385;DHT22;9828;54.122;17.974;2024-01-07T06:33:31;-2.70;1.00
19385;DHT22;9828;54.122;17.974;2024-01-07T06:38:53;-2.80;1.00
19385;DHT22;9828;54.122;17.974;2024-01-07T06:44:14;-2.90;1.00
19385;DHT22;9828;54.122;17.974;2024-01-07T06:49:36;-3.00;1.00
19385;DHT22;9828;54.122;17.974;2024-01-07T06:54:57;-3.10;1.00
19385;DHT22;9828;54.122;17.974;2024-01-07T07:00:19;-2.90;1.00
19385;DHT22;9828;54.122;17.974;2024-01-07T07:05:40;-3.10;1.00
19385;DHT22;9828;54.122;17.974;2024-01-07T07:11:02;-3.30;1.00
19385;DHT22;9828;54.122;17.974;2024-01-07T07:16:24;-3.40;1.00
19385;DHT22;9828;54.122;17.974;2024-01-07T07:21:46;-3.50;1.00
19385;DHT22;9828;54.122;17.974;2024-01-07T07:27:08;-3.50;1.00
19385;DHT22;9828;54.122;17.974;2024-01-07T07:32:29;-3.50;1.00
19385;DHT22;9828;54.122;17.974;2024-01-07T07:37:50;-3.50;1.00
19385;DHT22;9828;54.122;17.974;2024-01-07T07:43:11;-3.70;1.00
19385;DHT22;9828;54.122;17.974;2024-01-07T07:48:33;-3.70;1.00
19385;DHT22;9828;54.122;17.974;2024-01-07T07:53:55;-3.80;1.00
19385;DHT22;9828;54.122;17.974;2024-01-07T07:59:16;-3.90;1.00
19385;DHT22;9828;54.122;17.974;2024-01-07T08:04:37;-3.80;1.00
19385;DHT22;9828;54.122;17.974;2024-01-07T08:09:59;-3.70;1.00
19385;DHT22;9828;54.122;17.974;2024-01-07T08:15:20;-3.80;1.00
19385;DHT22;9828;54.122;17.974;2024-01-07T08:20:42;-3.90;1.00
19385;DHT22;9828;54.122;17.974;2024-01-07T08:26:03;-4.00;1.00
19385;DHT22;9828;54.122;17.974;2024-01-07T08:31:24;-3.90;1.00
19385;DHT22;9828;54.122;17.974;2024-01-07T08:36:46;-3.90;1.00
19385;DHT22;9828;54.122;17.974;2024-01-07T08:42:07;-3.90;1.00
19385;DHT22;9828;54.122;17.974;2024-01-07T08:47:28;-3.90;1.00
19385;DHT22;9828;54.122;17.974;2024-01-07T08:52:50;-3.90;1.00
19385;DHT22;9828;54.122;17.974;2024-01-07T08:58:11;-3.90;1.00
19385;DHT22;9828;54.122;17.974;2024-01-07T09:03:33;-3.90;1.00
19385;DHT22;9828;54.122;17.974;2024-01-07T09:08:54;-3.90;1.00
19385;DHT22;9828;54.122;17.974;2024-01-07T09:14:15;-3.80;1.00
19385;DHT22;9828;54.122;17.974;2024-01-07T09:19:37;-3.80;1.00
19385;DHT22;9828;54.122;17.974;2024-01-07T09:24:58;-3.70;1.00
19385;DHT22;9828;54.122;17.974;2024-01-07T09:30:19;-3.80;1.00
19385;DHT22;9828;54.122;17.974;2024-01-07T09:35:41;-4.00;1.00
19385;DHT22;9828;54.122;17.974;2024-01-07T09:41:02;-3.80;1.00
19385;DHT22;9828;54.122;17.974;2024-01-07T09:46:24;-3.80;1.00
19385;DHT22;9828;54.122;17.974;2024-01-07T09:51:46;-3.70;1.00
19385;DHT22;9828;54.122;17.974;2024-01-07T09:57:08;-3.50;1.00
19385;DHT22;9828;54.122;17.974;2024-01-07T10:02:29;-3.50;1.00
19385;DHT22;9828;54.122;17.974;2024-01-07T10:07:51;-3.80;1.00
19385;DHT22;9828;54.122;17.974;2024-01-07T10:13:15;-3.80;1.00
19385;DHT22;9828;54.122;17.974;2024-01-07T10:18:37;-3.90;1.00
19385;DHT22;9828;54.122;17.974;2024-01-07T10:29:33;-4.20;1.00
19385;DHT22;9828;54.122;17.974;2024-01-07T10:35:05;-4.10;1.00
19385;DHT22;9828;54.122;17.974;2024-01-07T10:40:31;-3.80;1.00
19385;DHT22;9828;54.122;17.974;2024-01-07T10:45:54;-3.70;1.00
19385;DHT22;9828;54.122;17.974;2024-01-07T10:51:16;-3.70;1.00
19385;DHT22;9828;54.122;17.974;2024-01-07T10:56:45;-3.70;1.00
19385;DHT22;9828;54.122;17.974;2024-01-07T11:02:10;-3.70;1.00
19385;DHT22;9828;54.122;17.974;2024-01-07T11:07:38;-3.70;1.00
19385;DHT22;9828;54.122;17.974;2024-01-07T11:13:01;-3.70;1.00
19385;DHT22;9828;54.122;17.974;2024-01-07T11:18:23;-3.60;1.00
19385;DHT22;9828;54.122;17.974;2024-01-07T11:23:44;-2.30;1.00
19385;DHT22;9828;54.122;17.974;2024-01-07T11:29:08;-0.80;1.00
19385;DHT22;9828;54.122;17.974;2024-01-07T11:34:43;-1.30;1.00
19385;DHT22;9828;54.122;17.974;2024-01-07T11:40:06;-2.50;1.00
19385;DHT22;9828;54.122;17.974;2024-01-07T11:45:27;-3.00;1.00
19385;DHT22;9828;54.122;17.974;2024-01-07T11:50:49;-3.60;1.00
19385;DHT22;9828;54.122;17.974;2024-01-07T11:56:12;-3.90;1.00
19385;DHT22;9828;54.122;17.974;2024-01-07T12:01:33;-4.00;1.00
19385;DHT22;9828;54.122;17.974;2024-01-07T12:06:55;-4.00;1.00
19385;DHT22;9828;54.122;17.974;2024-01-07T12:12:16;-4.00;1.00
19385;DHT22;9828;54.122;17.974;2024-01-07T12:17:41;-3.60;1.00
19385;DHT22;9828;54.122;17.974;2024-01-07T12:23:06;-3.70;1.00
19385;DHT22;9828;54.122;17.974;2024-01-07T12:28:28;-3.90;1.00
19385;DHT22;9828;54.122;17.974;2024-01-07T12:33:51;-3.70;1.00
19385;DHT22;9828;54.122;17.974;2024-01-07T12:39:12;-3.70;1.00
19385;DHT22;9828;54.122;17.974;2024-01-07T12:44:33;-3.90;1.00
19385;DHT22;9828;54.122;17.974;2024-01-07T12:49:55;-4.20;1.00
19385;DHT22;9828;54.122;17.974;2024-01-07T12:55:16;-4.40;1.00
19385;DHT22;9828;54.122;17.974;2024-01-07T13:00:38;-4.50;1.00
19385;DHT22;9828;54.122;17.974;2024-01-07T13:06:01;-4.40;1.00
19385;DHT22;9828;54.122;17.974;2024-01-07T13:11:23;-4.30;1.00
19385;DHT22;9828;54.122;17.974;2024-01-07T13:16:44;-4.70;1.00
19385;DHT22;9828;54.122;17.974;2024-01-07T13:22:05;-4.80;1.00
19385;DHT22;9828;54.122;17.974;2024-01-07T13:27:26;-4.80;1.00
19385;DHT22;9828;54.122;17.974;2024-01-07T13:32:48;-4.80;1.00
19385;DHT22;9828;54.122;17.974;2024-01-07T13:38:10;-4.70;1.00
19385;DHT22;9828;54.122;17.974;2024-01-07T13:43:31;-4.80;1.00
19385;DHT22;9828;54.122;17.974;2024-01-07T13:54:14;-4.80;1.00
19385;DHT22;9828;54.122;17.974;2024-01-07T13:59:35;-4.90;1.00
19385;DHT22;9828;54.122;17.974;2024-01-07T14:04:56;-4.70;1.00
19385;DHT22;9828;54.122;17.974;2024-01-07T14:10:18;-4.80;1.00
19385;DHT22;9828;54.122;17.974;2024-01-07T14:15:42;-4.80;1.00
19385;DHT22;9828;54.122;17.974;2024-01-07T14:21:05;-4.90;1.00
19385;DHT22;9828;54.122;17.974;2024-01-07T14:26:26;-4.90;1.00
19385;DHT22;9828;54.122;17.974;2024-01-07T14:37:09;-5.20;1.00
19385;DHT22;9828;54.122;17.974;2024-01-07T14:42:31;-5.20;1.00
19385;DHT22;9828;54.122;17.974;2024-01-07T14:47:52;-5.30;1.00
19385;DHT22;9828;54.122;17.974;2024-01-07T14:53:13;-5.50;1.00
19385;DHT22;9828;54.122;17.974;2024-01-07T14:58:36;-5.40;1.00
19385;DHT22;9828;54.122;17.974;2024-01-07T15:03:58;-5.60;1.00
19385;DHT22;9828;54.122;17.974;2024-01-07T15:09:19;-5.50;1.00
19385;DHT22;9828;54.122;17.974;2024-01-07T15:14:42;-5.60;1.00
19385;DHT22;9828;54.122;17.974;2024-01-07T15:20:04;-5.60;1.00
19385;DHT22;9828;54.122;17.974;2024-01-07T15:25:26;-5.60;1.00
19385;DHT22;9828;54.122;17.974;2024-01-07T15:30:48;-5.50;1.00
19385;DHT22;9828;54.122;17.974;2024-01-07T15:36:09;-5.60;1.00
19385;DHT22;9828;54.122;17.974;2024-01-07T15:41:31;-5.70;1.00
19385;DHT22;9828;54.122;17.974;2024-01-07T15:46:52;-5.80;1.00
19385;DHT22;9828;54.122;17.974;2024-01-07T15:52:13;-5.90;1.00
19385;DHT22;9828;54.122;17.974;2024-01-07T15:57:35;-5.90;1.00
19385;DHT22;9828;54.122;17.974;2024-01-07T16:02:56;-6.10;1.00
19385;DHT22;9828;54.122;17.974;2024-01-07T16:08:19;-6.00;1.00
19385;DHT22;9828;54.122;17.974;2024-01-07T16:13:41;-6.00;1.00
19385;DHT22;9828;54.122;17.974;2024-01-07T16:19:02;-6.00;1.00
19385;DHT22;9828;54.122;17.974;2024-01-07T16:24:28;-6.10;1.00
19385;DHT22;9828;54.122;17.974;2024-01-07T16:29:49;-6.10;1.00
19385;DHT22;9828;54.122;17.974;2024-01-07T16:35:11;-6.30;1.00
19385;DHT22;9828;54.122;17.974;2024-01-07T16:40:32;-6.20;1.00
19385;DHT22;9828;54.122;17.974;2024-01-07T16:45:53;-6.20;1.00
19385;DHT22;9828;54.122;17.974;2024-01-07T16:51:14;-6.20;1.00
19385;DHT22;9828;54.122;17.974;2024-01-07T16:56:36;-6.30;1.00
19385;DHT22;9828;54.122;17.974;2024-01-07T17:01:58;-6.40;1.00
19385;DHT22;9828;54.122;17.974;2024-01-07T17:07:19;-6.40;1.00
19385;DHT22;9828;54.122;17.974;2024-01-07T17:12:41;-6.50;1.00
19385;DHT22;9828;54.122;17.974;2024-01-07T17:18:02;-6.40;1.00
19385;DHT22;9828;54.122;17.974;2024-01-07T17:23:23;-6.40;1.00
19385;DHT22;9828;54.122;17.974;2024-01-07T17:28:45;-6.40;1.00
19385;DHT22;9828;54.122;17.974;2024-01-07T17:34:07;-6.50;1.00
19385;DHT22;9828;54.122;17.974;2024-01-07T17:39:28;-6.50;1.00
19385;DHT22;9828;54.122;17.974;2024-01-07T17:44:50;-6.60;1.00
19385;DHT22;9828;54.122;17.974;2024-01-07T17:50:13;-6.50;1.00
19385;DHT22;9828;54.122;17.974;2024-01-07T17:55:35;-6.50;1.00
19385;DHT22;9828;54.122;17.974;2024-01-07T18:00:59;-6.50;1.00
19385;DHT22;9828;54.122;17.974;2024-01-07T18:06:20;-6.60;1.00
19385;DHT22;9828;54.122;17.974;2024-01-07T18:11:41;-6.60;1.00
19385;DHT22;9828;54.122;17.974;2024-01-07T18:17:03;-6.90;1.00
19385;DHT22;9828;54.122;17.974;2024-01-07T18:22:24;-6.60;59.30
19385;DHT22;9828;54.122;17.974;2024-01-07T18:27:45;-6.60;60.40
19385;DHT22;9828;54.122;17.974;2024-01-07T18:33:07;-6.60;99.90
19385;DHT22;9828;54.122;17.974;2024-01-07T18:38:28;-6.60;17.60
19385;DHT22;9828;54.122;17.974;2024-01-07T18:43:50;-6.80;1.00
19385;DHT22;9828;54.122;17.974;2024-01-07T18:49:12;-6.70;1.00
19385;DHT22;9828;54.122;17.974;2024-01-07T18:54:33;-6.80;1.00
19385;DHT22;9828;54.122;17.974;2024-01-07T18:59:58;-6.80;1.00
19385;DHT22;9828;54.122;17.974;2024-01-07T19:05:20;-6.90;1.00
19385;DHT22;9828;54.122;17.974;2024-01-07T19:10:42;-6.90;1.00
19385;DHT22;9828;54.122;17.974;2024-01-07T19:16:04;-6.80;1.00
19385;DHT22;9828;54.122;17.974;2024-01-07T19:21:27;-6.80;1.00
19385;DHT22;9828;54.122;17.974;2024-01-07T19:26:48;-6.80;1.00
19385;DHT22;9828;54.122;17.974;2024-01-07T19:32:09;-6.80;1.00
19385;DHT22;9828;54.122;17.974;2024-01-07T19:37:30;-6.80;1.00
19385;DHT22;9828;54.122;17.974;2024-01-07T19:42:51;-6.90;1.00
19385;DHT22;9828;54.122;17.974;2024-01-07T19:48:14;-6.80;1.00
19385;DHT22;9828;54.122;17.974;2024-01-07T19:53:35;-6.80;1.00
19385;DHT22;9828;54.122;17.974;2024-01-07T19:58:57;-6.80;1.00
19385;DHT22;9828;54.122;17.974;2024-01-07T20:04:18;-6.90;1.00
19385;DHT22;9828;54.122;17.974;2024-01-07T20:09:39;-6.90;1.00
19385;DHT22;9828;54.122;17.974;2024-01-07T20:15:02;-7.00;1.00
19385;DHT22;9828;54.122;17.974;2024-01-07T20:20:24;-6.90;1.00
19385;DHT22;9828;54.122;17.974;2024-01-07T20:25:45;-6.90;1.00
19385;DHT22;9828;54.122;17.974;2024-01-07T20:31:08;-7.00;1.00
19385;DHT22;9828;54.122;17.974;2024-01-07T20:36:31;-7.00;1.00
19385;DHT22;9828;54.122;17.974;2024-01-07T20:41:52;-7.00;1.00
19385;DHT22;9828;54.122;17.974;2024-01-07T20:47:13;-6.90;1.00
19385;DHT22;9828;54.122;17.974;2024-01-07T20:52:35;-6.80;1.00
19385;DHT22;9828;54.122;17.974;2024-01-07T20:57:56;-6.80;1.00
19385;DHT22;9828;54.122;17.974;2024-01-07T21:03:17;-6.80;1.00
19385;DHT22;9828;54.122;17.974;2024-01-07T21:08:39;-6.80;1.00
19385;DHT22;9828;54.122;17.974;2024-01-07T21:14:00;-6.80;1.00
19385;DHT22;9828;54.122;17.974;2024-01-07T21:19:21;-6.70;1.00
19385;DHT22;9828;54.122;17.974;2024-01-07T21:24:42;-6.60;1.00
19385;DHT22;9828;54.122;17.974;2024-01-07T21:30:04;-6.40;1.00
19385;DHT22;9828;54.122;17.974;2024-01-07T21:35:25;-6.30;1.00
19385;DHT22;9828;54.122;17.974;2024-01-07T21:40:48;-6.30;1.00
19385;DHT22;9828;54.122;17.974;2024-01-07T21:46:11;-6.20;1.00
19385;DHT22;9828;54.122;17.974;2024-01-07T21:51:36;-6.10;1.00
19385;DHT22;9828;54.122;17.974;2024-01-07T21:56:57;-5.90;1.00
19385;DHT22;9828;54.122;17.974;2024-01-07T22:02:19;-5.90;1.00
19385;DHT22;9828;54.122;17.974;2024-01-07T22:07:40;-5.90;1.00
19385;DHT22;9828;54.122;17.974;2024-01-07T22:13:01;-5.90;1.00
19385;DHT22;9828;54.122;17.974;2024-01-07T22:18:22;-6.00;1.00
19385;DHT22;9828;54.122;17.974;2024-01-07T22:23:44;-6.00;1.00
19385;DHT22;9828;54.122;17.974;2024-01-07T22:29:06;-5.90;1.00
19385;DHT22;9828;54.122;17.974;2024-01-07T22:34:27;-5.80;1.00
19385;DHT22;9828;54.122;17.974;2024-01-07T22:39:49;-5.80;1.00
19385;DHT22;9828;54.122;17.974;2024-01-07T22:45:10;-5.80;1.00
19385;DHT22;9828;54.122;17.974;2024-01-07T22:50:31;-5.80;1.00
19385;DHT22;9828;54.122;17.974;2024-01-07T22:55:53;-5.60;1.00
19385;DHT22;9828;54.122;17.974;2024-01-07T23:01:25;-5.60;1.00
19385;DHT22;9828;54.122;17.974;2024-01-07T23:06:46;-5.90;1.00
19385;DHT22;9828;54.122;17.974;2024-01-07T23:12:08;-6.00;1.00
19385;DHT22;9828;54.122;17.974;2024-01-07T23:17:29;-6.10;2.20
19385;DHT22;9828;54.122;17.974;2024-01-07T23:22:50;-6.00;26.30
19385;DHT22;9828;54.122;17.974;2024-01-07T23:28:13;-6.00;1.00
19385;DHT22;9828;54.122;17.974;2024-01-07T23:33:34;-5.90;1.00
19385;DHT22;9828;54.122;17.974;2024-01-07T23:38:55;-5.90;1.00
19385;DHT22;9828;54.122;17.974;2024-01-07T23:44:17;-6.00;1.00
19385;DHT22;9828;54.122;17.974;2024-01-07T23:49:38;-6.10;1.00
19385;DHT22;9828;54.122;17.974;2024-01-07T23:54:59;-6.20;3.80
